sensor_id;sensor_type;location;lat;lon;timestamp;pressure;altitude;pressure_sealevel;temperature;humidity
77452;BME280;66537;52.370;4.832;2024-01-27T00:01:01;103526.31;;;4.78;100.00
77452;BME280;66537;52.370;4.832;2024-01-27T00:03:27;103516.88;;;4.77;100.00
77452;BME280;66537;52.370;4.832;2024-01-27T00:05:52;103519.44;;;4.77;100.00
77452;BME280;66537;52.370;4.832;2024-01-27T00:08:17;103520.53;;;4.61;100.00
77452;BME280;66537;52.370;4.832;2024-01-27T00:10:43;103521.78;;;4.48;100.00
77452;BME280;66537;52.370;4.832;2024-01-27T00:13:11;103521.06;;;4.52;100.00
77452;BME280;66537;52.370;4.832;2024-01-27T00:15:36;103512.31;;;4.47;100.00
77452;BME280;66537;52.370;4.832;2024-01-27T00:18:02;103512.06;;;4.41;100.00
77452;BME280;66537;52.370;4.832;2024-01-27T00:20:27;103524.63;;;4.56;100.00
77452;BME280;66537;52.370;4.832;2024-01-27T00:22:52;103517.44;;;4.47;100.00
77452;BME280;66537;52.370;4.832;2024-01-27T00:25:18;103518.28;;;4.46;100.00
77452;BME280;66537;52.370;4.832;2024-01-27T00:27:43;103520.66;;;4.42;100.00
77452;BME280;66537;52.370;4.832;2024-01-27T00:30:09;103517.72;;;4.55;100.00
77452;BME280;66537;52.370;4.832;2024-01-27T00:32:36;103516.88;;;4.54;100.00
77452;BME280;66537;52.370;4.832;2024-01-27T00:35:02;103519.22;;;4.48;100.00
77452;BME280;66537;52.370;4.832;2024-01-27T00:37:28;103516.75;;;4.51;100.00
77452;BME280;66537;52.370;4.832;2024-01-27T00:39:53;103517.28;;;4.43;100.00
77452;BME280;66537;52.370;4.832;2024-01-27T00:42:19;103516.59;;;4.47;100.00
77452;BME280;66537;52.370;4.832;2024-01-27T00:44:49;103521.72;;;4.47;100.00
77452;BME280;66537;52.370;4.832;2024-01-27T00:47:15;103521.78;;;4.48;100.00
77452;BME280;66537;52.370;4.832;2024-01-27T00:49:40;103525.22;;;4.49;100.00
77452;BME280;66537;52.370;4.832;2024-01-27T00:52:05;103519.56;;;4.35;100.00
77452;BME280;66537;52.370;4.832;2024-01-27T00:54:31;103523.50;;;4.49;100.00
77452;BME280;66537;52.370;4.832;2024-01-27T00:56:56;103529.28;;;4.44;100.00
77452;BME280;66537;52.370;4.832;2024-01-27T00:59:21;103535.31;;;4.24;100.00
77452;BME280;66537;52.370;4.832;2024-01-27T01:01:47;103536.44;;;4.10;100.00
77452;BME280;66537;52.370;4.832;2024-01-27T01:04:13;103534.97;;;4.16;100.00
77452;BME280;66537;52.370;4.832;2024-01-27T01:06:41;103533.19;;;4.14;100.00
77452;BME280;66537;52.370;4.832;2024-01-27T01:09:06;103530.63;;;4.14;100.00
77452;BME280;66537;52.370;4.832;2024-01-27T01:11:32;103531.38;;;4.11;100.00
77452;BME280;66537;52.370;4.832;2024-01-27T01:13:57;103536.66;;;4.36;100.00
77452;BME280;66537;52.370;4.832;2024-01-27T01:16:22;103527.50;;;4.21;100.00
77452;BME280;66537;52.370;4.832;2024-01-27T01:18:48;103531.00;;;4.23;100.00
77452;BME280;66537;52.370;4.832;2024-01-27T01:21:13;103533.56;;;4.23;100.00
77452;BME280;66537;52.370;4.832;2024-01-27T01:23:39;103534.44;;;4.23;100.00
77452;BME280;66537;52.370;4.832;2024-01-27T01:26:04;103536.66;;;4.36;100.00
77452;BME280;66537;52.370;4.832;2024-01-27T01:28:29;103541.78;;;4.36;100.00
77452;BME280;66537;52.370;4.832;2024-01-27T01:30:56;103536.72;;;4.38;100.00
77452;BME280;66537;52.370;4.832;2024-01-27T01:33:22;103524.28;;;4.47;100.00
77452;BME280;66537;52.370;4.832;2024-01-27T01:35:47;103525.31;;;4.52;100.00
77452;BME280;66537;52.370;4.832;2024-01-27T01:38:13;103535.63;;;4.53;100.00
77452;BME280;66537;52.370;4.832;2024-01-27T01:40:38;103538.25;;;4.55;100.00
77452;BME280;66537;52.370;4.832;2024-01-27T01:43:11;103536.31;;;4.27;100.00
77452;BME280;66537;52.370;4.832;2024-01-27T01:45:39;103525.41;;;4.12;100.00
77452;BME280;66537;52.370;4.832;2024-01-27T01:48:05;103527.13;;;4.12;100.00
77452;BME280;66537;52.370;4.832;2024-01-27T01:50:32;103540.19;;;4.18;100.00
77452;BME280;66537;52.370;4.832;2024-01-27T01:52:57;103536.38;;;4.08;100.00
77452;BME280;66537;52.370;4.832;2024-01-27T01:55:23;103542.06;;;4.01;100.00
77452;BME280;66537;52.370;4.832;2024-01-27T01:57:49;103548.00;;;4.00;100.00
77452;BME280;66537;52.370;4.832;2024-01-27T02:00:15;103543.63;;;3.98;100.00
77452;BME280;66537;52.370;4.832;2024-01-27T02:02:43;103545.59;;;4.05;100.00
77452;BME280;66537;52.370;4.832;2024-01-27T02:05:09;103543.06;;;3.84;100.00
77452;BME280;66537;52.370;4.832;2024-01-27T02:07:35;103552.50;;;3.85;100.00
77452;BME280;66537;52.370;4.832;2024-01-27T02:10:02;103546.06;;;3.95;100.00
77452;BME280;66537;52.370;4.832;2024-01-27T02:12:27;103539.13;;;3.92;100.00
77452;BME280;66537;52.370;4.832;2024-01-27T02:14:52;103540.25;;;3.99;100.00
77452;BME280;66537;52.370;4.832;2024-01-27T02:17:18;103537.63;;;3.97;100.00
77452;BME280;66537;52.370;4.832;2024-01-27T02:19:43;103538.44;;;3.96;100.00
77452;BME280;66537;52.370;4.832;2024-01-27T02:22:08;103552.81;;;3.93;100.00
77452;BME280;66537;52.370;4.832;2024-01-27T02:24:34;103555.53;;;3.97;100.00
77452;BME280;66537;52.370;4.832;2024-01-27T02:26:59;103553.50;;;4.09;100.00
77452;BME280;66537;52.370;4.832;2024-01-27T02:29:24;103553.66;;;3.93;100.00
77452;BME280;66537;52.370;4.832;2024-01-27T02:31:52;103555.38;;;3.93;100.00
77452;BME280;66537;52.370;4.832;2024-01-27T02:34:18;103559.16;;;3.82;100.00
77452;BME280;66537;52.370;4.832;2024-01-27T02:36:43;103545.50;;;3.81;100.00
77452;BME280;66537;52.370;4.832;2024-01-27T02:39:09;103558.53;;;3.87;100.00
77452;BME280;66537;52.370;4.832;2024-01-27T02:41:34;103555.75;;;3.81;100.00
77452;BME280;66537;52.370;4.832;2024-01-27T02:44:04;103561.53;;;3.77;100.00
77452;BME280;66537;52.370;4.832;2024-01-27T02:46:29;103545.34;;;3.78;100.00
77452;BME280;66537;52.370;4.832;2024-01-27T02:48:55;103550.41;;;3.97;100.00
77452;BME280;66537;52.370;4.832;2024-01-27T02:51:20;103555.28;;;3.91;100.00
77452;BME280;66537;52.370;4.832;2024-01-27T02:53:45;103542.31;;;3.87;100.00
77452;BME280;66537;52.370;4.832;2024-01-27T02:56:11;103554.50;;;3.92;100.00
77452;BME280;66537;52.370;4.832;2024-01-27T02:58:36;103553.28;;;3.84;100.00
77452;BME280;66537;52.370;4.832;2024-01-27T03:01:01;103538.66;;;3.82;100.00
77452;BME280;66537;52.370;4.832;2024-01-27T03:03:27;103548.44;;;3.90;100.00
77452;BME280;66537;52.370;4.832;2024-01-27T03:05:52;103537.88;;;3.83;100.00
77452;BME280;66537;52.370;4.832;2024-01-27T03:08:17;103542.00;;;3.79;100.00
77452;BME280;66537;52.370;4.832;2024-01-27T03:10:42;103539.03;;;3.70;100.00
77452;BME280;66537;52.370;4.832;2024-01-27T03:13:08;103533.50;;;3.80;100.00
77452;BME280;66537;52.370;4.832;2024-01-27T03:15:33;103541.53;;;3.89;100.00
77452;BME280;66537;52.370;4.832;2024-01-27T03:17:58;103526.31;;;3.92;100.00
77452;BME280;66537;52.370;4.832;2024-01-27T03:20:24;103528.94;;;3.94;100.00
77452;BME280;66537;52.370;4.832;2024-01-27T03:22:49;103550.84;;;3.87;100.00
77452;BME280;66537;52.370;4.832;2024-01-27T03:25:15;103546.44;;;3.83;100.00
77452;BME280;66537;52.370;4.832;2024-01-27T03:27:40;103534.44;;;3.82;100.00
77452;BME280;66537;52.370;4.832;2024-01-27T03:30:06;103544.41;;;3.76;100.00
77452;BME280;66537;52.370;4.832;2024-01-27T03:32:32;103550.47;;;3.78;100.00
77452;BME280;66537;52.370;4.832;2024-01-27T03:34:59;103544.47;;;3.78;100.00
77452;BME280;66537;52.370;4.832;2024-01-27T03:37:24;103545.09;;;3.72;100.00
77452;BME280;66537;52.370;4.832;2024-01-27T03:39:49;103548.53;;;3.73;100.00
77452;BME280;66537;52.370;4.832;2024-01-27T03:42:15;103547.84;;;3.77;100.00
77452;BME280;66537;52.370;4.832;2024-01-27T03:44:40;103555.22;;;3.90;100.00
77452;BME280;66537;52.370;4.832;2024-01-27T03:47:05;103566.66;;;3.98;100.00
77452;BME280;66537;52.370;4.832;2024-01-27T03:49:31;103567.72;;;4.03;100.00
77452;BME280;66537;52.370;4.832;2024-01-27T03:51:56;103563.78;;;3.90;100.00
77452;BME280;66537;52.370;4.832;2024-01-27T03:54:21;103571.78;;;3.77;100.00
77452;BME280;66537;52.370;4.832;2024-01-27T03:56:47;103552.94;;;3.56;100.00
77452;BME280;66537;52.370;4.832;2024-01-27T03:59:12;103560.38;;;3.50;100.00
77452;BME280;66537;52.370;4.832;2024-01-27T04:01:38;103552.00;;;3.54;100.00
77452;BME280;66537;52.370;4.832;2024-01-27T04:04:03;103550.75;;;3.44;100.00
77452;BME280;66537;52.370;4.832;2024-01-27T04:06:28;103546.22;;;3.58;100.00
77452;BME280;66537;52.370;4.832;2024-01-27T04:08:54;103554.13;;;3.64;100.00
77452;BME280;66537;52.370;4.832;2024-01-27T04:11:20;103556.44;;;3.58;100.00
77452;BME280;66537;52.370;4.832;2024-01-27T04:13:46;103558.22;;;3.40;100.00
77452;BME280;66537;52.370;4.832;2024-01-27T04:16:11;103555.72;;;3.41;100.00
77452;BME280;66537;52.370;4.832;2024-01-27T04:18:38;103553.75;;;3.55;100.00
77452;BME280;66537;52.370;4.832;2024-01-27T04:21:04;103547.91;;;3.38;100.00
77452;BME280;66537;52.370;4.832;2024-01-27T04:23:29;103566.34;;;3.31;100.00
77452;BME280;66537;52.370;4.832;2024-01-27T04:25:55;103559.94;;;3.41;100.00
77452;BME280;66537;52.370;4.832;2024-01-27T04:28:20;103568.44;;;3.40;100.00
77452;BME280;66537;52.370;4.832;2024-01-27T04:30:46;103575.16;;;3.57;100.00
77452;BME280;66537;52.370;4.832;2024-01-27T04:33:12;103569.56;;;3.65;100.00
77452;BME280;66537;52.370;4.832;2024-01-27T04:35:37;103567.00;;;3.65;100.00
77452;BME280;66537;52.370;4.832;2024-01-27T04:38:02;103568.56;;;3.43;100.00
77452;BME280;66537;52.370;4.832;2024-01-27T04:40:28;103578.13;;;3.28;100.00
77452;BME280;66537;52.370;4.832;2024-01-27T04:42:53;103571.78;;;3.20;100.00
77452;BME280;66537;52.370;4.832;2024-01-27T04:45:19;103576.56;;;3.31;100.00
77452;BME280;66537;52.370;4.832;2024-01-27T04:47:44;103578.34;;;3.32;100.00
77452;BME280;66537;52.370;4.832;2024-01-27T04:50:09;103567.91;;;3.28;100.00
77452;BME280;66537;52.370;4.832;2024-01-27T04:52:35;103563.03;;;3.53;100.00
77452;BME280;66537;52.370;4.832;2024-01-27T04:55:01;103571.44;;;3.50;100.00
77452;BME280;66537;52.370;4.832;2024-01-27T04:57:26;103567.69;;;3.61;100.00
77452;BME280;66537;52.370;4.832;2024-01-27T04:59:51;103564.84;;;3.75;100.00
77452;BME280;66537;52.370;4.832;2024-01-27T05:02:18;103562.22;;;3.73;100.00
77452;BME280;66537;52.370;4.832;2024-01-27T05:04:43;103563.72;;;3.49;100.00
77452;BME280;66537;52.370;4.832;2024-01-27T05:07:09;103568.75;;;3.66;100.00
77452;BME280;66537;52.370;4.832;2024-01-27T05:09:34;103562.56;;;3.61;100.00
77452;BME280;66537;52.370;4.832;2024-01-27T05:12:01;103561.75;;;3.43;100.00
77452;BME280;66537;52.370;4.832;2024-01-27T05:14:26;103561.41;;;3.55;100.00
77452;BME280;66537;52.370;4.832;2024-01-27T05:16:51;103563.72;;;3.30;100.00
77452;BME280;66537;52.370;4.832;2024-01-27T05:19:17;103563.00;;;3.32;100.00
77452;BME280;66537;52.370;4.832;2024-01-27T05:21:43;103564.88;;;3.36;100.00
77452;BME280;66537;52.370;4.832;2024-01-27T05:24:09;103569.78;;;3.32;100.00
77452;BME280;66537;52.370;4.832;2024-01-27T05:26:34;103574.16;;;3.34;100.00
77452;BME280;66537;52.370;4.832;2024-01-27T05:28:59;103576.25;;;3.43;100.00
77452;BME280;66537;52.370;4.832;2024-01-27T05:31:26;103577.00;;;3.40;100.00
77452;BME280;66537;52.370;4.832;2024-01-27T05:33:51;103582.78;;;3.36;100.00
77452;BME280;66537;52.370;4.832;2024-01-27T05:36:17;103571.66;;;3.36;100.00
77452;BME280;66537;52.370;4.832;2024-01-27T05:38:42;103578.69;;;3.40;100.00
77452;BME280;66537;52.370;4.832;2024-01-27T05:41:08;103575.19;;;3.38;100.00
77452;BME280;66537;52.370;4.832;2024-01-27T05:43:33;103562.94;;;3.31;100.00
77452;BME280;66537;52.370;4.832;2024-01-27T05:45:58;103561.03;;;3.46;100.00
77452;BME280;66537;52.370;4.832;2024-01-27T05:48:24;103560.56;;;3.16;100.00
77452;BME280;66537;52.370;4.832;2024-01-27T05:50:59;103563.94;;;3.15;100.00
77452;BME280;66537;52.370;4.832;2024-01-27T05:53:25;103553.41;;;3.09;100.00
77452;BME280;66537;52.370;4.832;2024-01-27T05:55:51;103555.22;;;3.12;100.00
77452;BME280;66537;52.370;4.832;2024-01-27T05:58:18;103555.31;;;3.13;100.00
77452;BME280;66537;52.370;4.832;2024-01-27T06:00:46;103559.19;;;3.05;100.00
77452;BME280;66537;52.370;4.832;2024-01-27T06:03:12;103562.44;;;3.01;100.00
77452;BME280;66537;52.370;4.832;2024-01-27T06:05:37;103564.69;;;2.95;100.00
77452;BME280;66537;52.370;4.832;2024-01-27T06:08:04;103572.38;;;2.95;100.00
77452;BME280;66537;52.370;4.832;2024-01-27T06:10:30;103570.53;;;2.93;100.00
77452;BME280;66537;52.370;4.832;2024-01-27T06:12:56;103578.94;;;3.08;100.00
77452;BME280;66537;52.370;4.832;2024-01-27T06:15:22;103583.91;;;3.05;100.00
77452;BME280;66537;52.370;4.832;2024-01-27T06:17:47;103582.00;;;3.01;100.00
77452;BME280;66537;52.370;4.832;2024-01-27T06:20:13;103576.88;;;3.01;100.00
77452;BME280;66537;52.370;4.832;2024-01-27T06:22:38;103565.38;;;3.10;100.00
77452;BME280;66537;52.370;4.832;2024-01-27T06:25:04;103567.50;;;3.19;100.00
77452;BME280;66537;52.370;4.832;2024-01-27T06:27:30;103569.50;;;3.07;100.00
77452;BME280;66537;52.370;4.832;2024-01-27T06:29:55;103552.69;;;3.31;100.00
77452;BME280;66537;52.370;4.832;2024-01-27T06:32:20;103557.47;;;3.42;100.00
77452;BME280;66537;52.370;4.832;2024-01-27T06:34:46;103559.34;;;3.27;100.00
77452;BME280;66537;52.370;4.832;2024-01-27T06:37:11;103563.94;;;3.34;100.00
77452;BME280;66537;52.370;4.832;2024-01-27T06:39:36;103572.88;;;3.25;100.00
77452;BME280;66537;52.370;4.832;2024-01-27T06:42:02;103575.16;;;3.19;100.00
77452;BME280;66537;52.370;4.832;2024-01-27T06:44:27;103571.31;;;2.90;100.00
77452;BME280;66537;52.370;4.832;2024-01-27T06:46:52;103556.22;;;2.96;100.00
77452;BME280;66537;52.370;4.832;2024-01-27T06:49:18;103571.66;;;2.98;100.00
77452;BME280;66537;52.370;4.832;2024-01-27T06:51:43;103574.66;;;2.89;100.00
77452;BME280;66537;52.370;4.832;2024-01-27T06:54:09;103573.41;;;2.81;100.00
77452;BME280;66537;52.370;4.832;2024-01-27T06:56:34;103579.47;;;2.83;100.00
77452;BME280;66537;52.370;4.832;2024-01-27T06:59:00;103570.41;;;2.90;100.00
77452;BME280;66537;52.370;4.832;2024-01-27T07:01:25;103572.09;;;2.89;100.00
77452;BME280;66537;52.370;4.832;2024-01-27T07:03:50;103580.09;;;2.97;100.00
77452;BME280;66537;52.370;4.832;2024-01-27T07:06:16;103573.03;;;2.91;100.00
77452;BME280;66537;52.370;4.832;2024-01-27T07:08:41;103569.88;;;2.97;100.00
77452;BME280;66537;52.370;4.832;2024-01-27T07:11:06;103578.16;;;2.91;100.00
77452;BME280;66537;52.370;4.832;2024-01-27T07:13:32;103583.47;;;2.96;100.00
77452;BME280;66537;52.370;4.832;2024-01-27T07:15:58;103577.56;;;2.97;100.00
77452;BME280;66537;52.370;4.832;2024-01-27T07:18:26;103571.25;;;3.08;100.00
77452;BME280;66537;52.370;4.832;2024-01-27T07:20:51;103579.97;;;2.94;100.00
77452;BME280;66537;52.370;4.832;2024-01-27T07:23:17;103582.63;;;2.78;100.00
77452;BME280;66537;52.370;4.832;2024-01-27T07:25:43;103581.97;;;2.82;100.00
77452;BME280;66537;52.370;4.832;2024-01-27T07:28:08;103581.66;;;2.93;100.00
77452;BME280;66537;52.370;4.832;2024-01-27T07:30:33;103581.88;;;2.98;100.00
77452;BME280;66537;52.370;4.832;2024-01-27T07:32:59;103572.13;;;3.08;100.00
77452;BME280;66537;52.370;4.832;2024-01-27T07:35:24;103571.25;;;3.08;100.00
77452;BME280;66537;52.370;4.832;2024-01-27T07:37:49;103573.22;;;3.13;100.00
77452;BME280;66537;52.370;4.832;2024-01-27T07:40:15;103572.13;;;3.27;100.00
77452;BME280;66537;52.370;4.832;2024-01-27T07:42:40;103573.63;;;3.22;100.00
77452;BME280;66537;52.370;4.832;2024-01-27T07:45:06;103570.06;;;3.19;100.00
77452;BME280;66537;52.370;4.832;2024-01-27T07:47:33;103579.63;;;3.23;100.00
77452;BME280;66537;52.370;4.832;2024-01-27T07:49:59;103590.03;;;3.27;100.00
77452;BME280;66537;52.370;4.832;2024-01-27T07:52:24;103590.97;;;3.29;100.00
77452;BME280;66537;52.370;4.832;2024-01-27T07:54:49;103591.69;;;3.44;100.00
77452;BME280;66537;52.370;4.832;2024-01-27T07:57:15;103598.25;;;3.39;100.00
77452;BME280;66537;52.370;4.832;2024-01-27T07:59:40;103600.31;;;3.46;100.00
77452;BME280;66537;52.370;4.832;2024-01-27T08:02:05;103603.72;;;3.47;100.00
77452;BME280;66537;52.370;4.832;2024-01-27T08:04:31;103606.09;;;3.61;100.00
77452;BME280;66537;52.370;4.832;2024-01-27T08:06:56;103597.41;;;3.58;100.00
77452;BME280;66537;52.370;4.832;2024-01-27T08:09:21;103598.19;;;3.76;100.00
77452;BME280;66537;52.370;4.832;2024-01-27T08:11:47;103597.38;;;3.77;100.00
77452;BME280;66537;52.370;4.832;2024-01-27T08:14:16;103594.72;;;3.95;100.00
77452;BME280;66537;52.370;4.832;2024-01-27T08:16:41;103594.63;;;3.93;100.00
77452;BME280;66537;52.370;4.832;2024-01-27T08:19:08;103596.16;;;3.88;100.00
77452;BME280;66537;52.370;4.832;2024-01-27T08:21:33;103599.59;;;3.89;100.00
77452;BME280;66537;52.370;4.832;2024-01-27T08:23:58;103600.66;;;3.94;100.00
77452;BME280;66537;52.370;4.832;2024-01-27T08:26:24;103597.00;;;4.08;100.00
77452;BME280;66537;52.370;4.832;2024-01-27T08:28:49;103603.69;;;4.25;100.00
77452;BME280;66537;52.370;4.832;2024-01-27T08:31:14;103595.41;;;4.32;100.00
77452;BME280;66537;52.370;4.832;2024-01-27T08:33:40;103592.41;;;4.42;100.00
77452;BME280;66537;52.370;4.832;2024-01-27T08:36:05;103597.00;;;4.49;100.00
77452;BME280;66537;52.370;4.832;2024-01-27T08:38:32;103602.81;;;4.45;100.00
77452;BME280;66537;52.370;4.832;2024-01-27T08:40:57;103608.16;;;4.51;100.00
77452;BME280;66537;52.370;4.832;2024-01-27T08:43:22;103603.91;;;4.51;100.00
77452;BME280;66537;52.370;4.832;2024-01-27T08:45:48;103598.28;;;4.60;100.00
77452;BME280;66537;52.370;4.832;2024-01-27T08:48:13;103604.59;;;4.68;100.00
77452;BME280;66537;52.370;4.832;2024-01-27T08:50:38;103613.56;;;4.79;100.00
77452;BME280;66537;52.370;4.832;2024-01-27T08:53:04;103614.25;;;4.75;100.00
77452;BME280;66537;52.370;4.832;2024-01-27T08:55:29;103610.94;;;4.78;100.00
77452;BME280;66537;52.370;4.832;2024-01-27T08:57:56;103611.06;;;4.58;100.00
77452;BME280;66537;52.370;4.832;2024-01-27T09:00:21;103610.66;;;4.70;100.00
77452;BME280;66537;52.370;4.832;2024-01-27T09:02:47;103604.66;;;4.70;100.00
77452;BME280;66537;52.370;4.832;2024-01-27T09:05:12;103606.03;;;4.62;100.00
77452;BME280;66537;52.370;4.832;2024-01-27T09:07:38;103606.97;;;4.64;100.00
77452;BME280;66537;52.370;4.832;2024-01-27T09:10:03;103612.38;;;4.71;100.00
77452;BME280;66537;52.370;4.832;2024-01-27T09:12:29;103612.63;;;4.77;100.00
77452;BME280;66537;52.370;4.832;2024-01-27T09:14:54;103613.16;;;4.91;100.00
77452;BME280;66537;52.370;4.832;2024-01-27T09:17:22;103616.72;;;4.94;100.00
77452;BME280;66537;52.370;4.832;2024-01-27T09:19:48;103618.41;;;4.94;100.00
77452;BME280;66537;52.370;4.832;2024-01-27T09:22:13;103613.94;;;5.10;100.00
77452;BME280;66537;52.370;4.832;2024-01-27T09:24:40;103613.41;;;4.97;100.00
77452;BME280;66537;52.370;4.832;2024-01-27T09:27:05;103624.47;;;5.18;100.00
77452;BME280;66537;52.370;4.832;2024-01-27T09:29:30;103631.66;;;5.74;100.00
77452;BME280;66537;52.370;4.832;2024-01-27T09:31:56;103640.88;;;6.16;100.00
77452;BME280;66537;52.370;4.832;2024-01-27T09:34:21;103634.16;;;6.71;100.00
77452;BME280;66537;52.370;4.832;2024-01-27T09:36:46;103642.38;;;6.86;100.00
77452;BME280;66537;52.370;4.832;2024-01-27T09:39:12;103653.06;;;7.00;100.00
77452;BME280;66537;52.370;4.832;2024-01-27T09:41:38;103651.41;;;7.30;100.00
77452;BME280;66537;52.370;4.832;2024-01-27T09:44:04;103647.31;;;7.66;100.00
77452;BME280;66537;52.370;4.832;2024-01-27T09:46:31;103653.38;;;7.99;100.00
77452;BME280;66537;52.370;4.832;2024-01-27T09:48:56;103653.88;;;8.86;100.00
77452;BME280;66537;52.370;4.832;2024-01-27T09:51:22;103654.34;;;8.70;100.00
77452;BME280;66537;52.370;4.832;2024-01-27T09:53:48;103647.97;;;8.91;100.00
77452;BME280;66537;52.370;4.832;2024-01-27T09:56:16;103649.69;;;8.91;100.00
77452;BME280;66537;52.370;4.832;2024-01-27T09:58:44;103650.31;;;9.20;100.00
77452;BME280;66537;52.370;4.832;2024-01-27T10:01:10;103658.31;;;9.30;100.00
77452;BME280;66537;52.370;4.832;2024-01-27T10:03:38;103656.00;;;9.44;100.00
77452;BME280;66537;52.370;4.832;2024-01-27T10:06:09;103663.44;;;9.69;100.00
77452;BME280;66537;52.370;4.832;2024-01-27T10:08:35;103660.00;;;10.13;100.00
77452;BME280;66537;52.370;4.832;2024-01-27T10:11:08;103671.59;;;10.36;100.00
77452;BME280;66537;52.370;4.832;2024-01-27T10:13:36;103663.03;;;10.93;100.00
77452;BME280;66537;52.370;4.832;2024-01-27T10:16:08;103673.97;;;10.75;100.00
77452;BME280;66537;52.370;4.832;2024-01-27T10:18:34;103669.38;;;11.14;100.00
77452;BME280;66537;52.370;4.832;2024-01-27T10:21:17;103671.53;;;10.84;100.00
77452;BME280;66537;52.370;4.832;2024-01-27T10:23:44;103675.09;;;10.92;100.00
77452;BME280;66537;52.370;4.832;2024-01-27T10:26:10;103678.91;;;10.58;100.00
77452;BME280;66537;52.370;4.832;2024-01-27T10:28:36;103665.59;;;10.91;100.00
77452;BME280;66537;52.370;4.832;2024-01-27T10:31:09;103668.31;;;11.00;100.00
77452;BME280;66537;52.370;4.832;2024-01-27T10:33:34;103661.69;;;10.60;100.00
77452;BME280;66537;52.370;4.832;2024-01-27T10:36:00;103666.81;;;10.59;100.00
77452;BME280;66537;52.370;4.832;2024-01-27T10:38:39;103664.75;;;10.92;100.00
77452;BME280;66537;52.370;4.832;2024-01-27T10:41:08;103654.66;;;11.10;100.00
77452;BME280;66537;52.370;4.832;2024-01-27T10:43:36;103661.53;;;10.05;100.00
77452;BME280;66537;52.370;4.832;2024-01-27T10:46:06;103657.75;;;9.86;100.00
77452;BME280;66537;52.370;4.832;2024-01-27T10:48:34;103666.13;;;9.75;100.00
77452;BME280;66537;52.370;4.832;2024-01-27T10:51:07;103662.28;;;9.98;100.00
77452;BME280;66537;52.370;4.832;2024-01-27T10:53:34;103663.69;;;10.26;100.00
77452;BME280;66537;52.370;4.832;2024-01-27T10:56:01;103660.13;;;10.22;100.00
77452;BME280;66537;52.370;4.832;2024-01-27T10:58:30;103657.41;;;10.15;100.00
77452;BME280;66537;52.370;4.832;2024-01-27T11:00:56;103660.66;;;10.04;100.00
77452;BME280;66537;52.370;4.832;2024-01-27T11:03:23;103664.06;;;9.59;100.00
77452;BME280;66537;52.370;4.832;2024-01-27T11:05:51;103665.94;;;9.26;100.00
77452;BME280;66537;52.370;4.832;2024-01-27T11:08:18;103667.84;;;9.33;100.00
77452;BME280;66537;52.370;4.832;2024-01-27T11:10:44;103672.75;;;9.21;100.00
77452;BME280;66537;52.370;4.832;2024-01-27T11:13:10;103661.06;;;8.63;100.00
77452;BME280;66537;52.370;4.832;2024-01-27T11:15:36;103663.28;;;8.82;100.00
77452;BME280;66537;52.370;4.832;2024-01-27T11:18:01;103676.53;;;8.97;100.00
77452;BME280;66537;52.370;4.832;2024-01-27T11:20:32;103670.66;;;9.04;100.00
77452;BME280;66537;52.370;4.832;2024-01-27T11:23:11;103677.59;;;9.07;100.00
77452;BME280;66537;52.370;4.832;2024-01-27T11:25:37;103660.25;;;9.00;100.00
77452;BME280;66537;52.370;4.832;2024-01-27T11:28:13;103664.13;;;9.22;100.00
77452;BME280;66537;52.370;4.832;2024-01-27T11:30:39;103664.81;;;9.12;100.00
77452;BME280;66537;52.370;4.832;2024-01-27T11:33:05;103667.53;;;8.80;100.00
77452;BME280;66537;52.370;4.832;2024-01-27T11:35:30;103663.25;;;8.47;100.00
77452;BME280;66537;52.370;4.832;2024-01-27T11:37:56;103655.03;;;8.61;100.00
77452;BME280;66537;52.370;4.832;2024-01-27T11:40:21;103653.38;;;8.65;100.00
77452;BME280;66537;52.370;4.832;2024-01-27T11:43:00;103658.72;;;8.72;100.00
77452;BME280;66537;52.370;4.832;2024-01-27T11:45:26;103648.50;;;9.16;100.00
77452;BME280;66537;52.370;4.832;2024-01-27T11:47:55;103645.03;;;9.54;100.00
77452;BME280;66537;52.370;4.832;2024-01-27T11:50:20;103645.25;;;9.66;100.00
77452;BME280;66537;52.370;4.832;2024-01-27T11:52:46;103644.66;;;9.77;100.00
77452;BME280;66537;52.370;4.832;2024-01-27T11:55:12;103641.09;;;9.72;100.00
77452;BME280;66537;52.370;4.832;2024-01-27T11:57:38;103646.16;;;9.68;100.00
77452;BME280;66537;52.370;4.832;2024-01-27T12:00:03;103638.47;;;9.69;100.00
77452;BME280;66537;52.370;4.832;2024-01-27T12:02:29;103630.97;;;10.29;100.00
77452;BME280;66537;52.370;4.832;2024-01-27T12:04:55;103625.47;;;10.13;100.00
77452;BME280;66537;52.370;4.832;2024-01-27T12:07:20;103627.09;;;10.08;100.00
77452;BME280;66537;52.370;4.832;2024-01-27T12:09:48;103618.59;;;10.12;100.00
77452;BME280;66537;52.370;4.832;2024-01-27T12:12:15;103620.53;;;10.25;100.00
77452;BME280;66537;52.370;4.832;2024-01-27T12:14:44;103632.19;;;10.03;100.00
77452;BME280;66537;52.370;4.832;2024-01-27T12:17:10;103620.66;;;9.86;100.00
77452;BME280;66537;52.370;4.832;2024-01-27T12:19:37;103624.66;;;9.69;100.00
77452;BME280;66537;52.370;4.832;2024-01-27T12:22:03;103622.31;;;9.81;100.00
77452;BME280;66537;52.370;4.832;2024-01-27T12:24:28;103622.97;;;9.71;100.00
77452;BME280;66537;52.370;4.832;2024-01-27T12:26:55;103630.41;;;9.14;100.00
77452;BME280;66537;52.370;4.832;2024-01-27T12:29:22;103636.16;;;9.41;100.00
77452;BME280;66537;52.370;4.832;2024-01-27T12:31:47;103632.00;;;9.48;100.00
77452;BME280;66537;52.370;4.832;2024-01-27T12:34:13;103626.72;;;9.43;100.00
77452;BME280;66537;52.370;4.832;2024-01-27T12:36:42;103622.91;;;9.25;100.00
77452;BME280;66537;52.370;4.832;2024-01-27T12:39:08;103616.88;;;9.26;100.00
77452;BME280;66537;52.370;4.832;2024-01-27T12:41:34;103619.75;;;8.99;100.00
77452;BME280;66537;52.370;4.832;2024-01-27T12:44:00;103620.50;;;8.95;100.00